Terminal Aerodrome Forecast
Issued by NWS Portland, ME

Home | Current Version | Previous Version | Text Only | Print | Product List | Glossary On
Versions: 1 2 3 4 5 6 7 8 9 10 11 12 13 14 15 16 17 18 19 20
000
FTUS41 KGYX 251120
TAFCON
TAF
KCON 251120Z 2512/2612 06006KT P6SM SCT025 BKN050 OVC100
     FM251300 08008KT 5SM -SHRA BKN025 OVC050
     FM252000 07010KT 3SM -RA BR BKN007 OVC012=

USA.gov is the U.S. government's official web portal to all federal, state and local government web resources and services.